Adams, NE

3:16 PM CDT on July 30, 2016 (GMT -0500)
Woodland Plaza | | Change Station

Elev 1283 ft 40.63 °N, 96.63 °W | Updated 6 minutes ago

Scattered Clouds
Scattered Clouds
73.9 °F
Feels Like 73 °F
N
0.0
Wind Variable Wind from ESE

Today
High -- | Low -- °F
--% Chance of Precip.
Yesterday
High -- | Low -- °F
Precip. -- in
Pressure 30.00 in
Visibility 10.0 miles
Clouds Scattered Clouds 1900 ft
Scattered Clouds 9000 ft
Heat Index 73 °F
Dew Point 69 °F
Humidity 84%
Rainfall 0.20 in
Snow Depth Not available.
6:21 AM 8:42 PM
Waning Crescent, 11% visible
METAR KBIE 301955Z AUTO 15004KT 10SM SCT019 SCT090 24/19 A3000 RMK AO2 T02430185
Pressure 30.00 in
Visibility 10.0 miles
Clouds Scattered Clouds 1900 ft
Scattered Clouds 9000 ft
Heat Index 73 °F
Dew Point 69 °F
Humidity 84%
Rainfall 0.20 in
Snow Depth Not available.
6:21 AM 8:42 PM
Waning Crescent, 11% visible
METAR KBIE 301955Z AUTO 15004KT 10SM SCT019 SCT090 24/19 A3000 RMK AO2 T02430185

10-Day Weather Forecast

Almanac

Astronomy

Jul. 30, 2016 Rise Set
Actual Time
Civil Twilight
Nautical Twilight
Astronomical Twilight
Moon
Length of Visible Light
Length of Day
Tomorrow will be .
, % of the Moon is Illuminated

Today's Extremes

State Highs State Lows

Community

WunderPhotos

Upload Photos

1,928,630 photos uploaded!

WunderBlog® & News

Nearby

Air Quality

  Air Quality AQ Index Pollutant
Not available.

Snow Depth

Station Depth Elevation

Earthquake Activity

City Distance Mag. Time & Date
Minimum magnitude displayed is 2.5.

Coastal Water Temperatures

Place Temperature

Stations

Nearby Weather Stations

Station Location Temp. Windchill Dew Point Humidity Wind Precip. Elev Updated Type
                   

Watches & Warnings

There are currently no watches in effect.